createdAt,value
2018-12-06T00:01:14.446Z,16.80
2018-12-06T00:03:41.666Z,16.80
2018-12-06T00:06:08.902Z,16.80
2018-12-06T00:08:36.123Z,16.80
2018-12-06T00:11:04.137Z,16.80
2018-12-06T00:13:31.358Z,16.80
2018-12-06T00:15:59.517Z,16.80
2018-12-06T00:18:27.766Z,16.80
2018-12-06T00:20:54.988Z,16.80
2018-12-06T00:23:22.205Z,16.80
2018-12-06T00:25:50.217Z,16.70
2018-12-06T00:28:18.344Z,16.80
2018-12-06T00:30:45.563Z,16.80
2018-12-06T00:33:14.516Z,16.80
2018-12-06T00:35:43.382Z,16.70
2018-12-06T00:38:10.601Z,16.80
2018-12-06T00:40:37.819Z,16.70
2018-12-06T00:43:05.036Z,16.70
2018-12-06T00:45:32.287Z,16.70
2018-12-06T00:47:59.504Z,16.70
2018-12-06T00:50:27.572Z,16.70
2018-12-06T00:52:55.640Z,16.70
2018-12-06T00:55:23.006Z,16.70
2018-12-06T00:57:50.222Z,16.70
2018-12-06T01:00:17.434Z,16.70
2018-12-06T01:02:45.455Z,16.70
2018-12-06T01:05:14.553Z,16.70
2018-12-06T01:07:43.484Z,16.70
2018-12-06T01:10:10.715Z,16.70
2018-12-06T01:12:37.922Z,16.70
2018-12-06T01:15:06.061Z,16.70
2018-12-06T01:17:34.247Z,16.60
2018-12-06T01:20:02.416Z,16.70
2018-12-06T01:22:30.643Z,16.60
2018-12-06T01:24:58.642Z,16.70
2018-12-06T01:27:25.862Z,16.70
2018-12-06T01:29:54.065Z,16.80
2018-12-06T01:32:21.280Z,16.80
2018-12-06T01:34:49.292Z,16.80
2018-12-06T01:37:16.508Z,16.90
2018-12-06T01:39:44.627Z,16.90
2018-12-06T01:42:13.649Z,16.80
2018-12-06T01:44:41.771Z,16.80
2018-12-06T01:47:08.983Z,16.80
2018-12-06T01:49:36.993Z,16.80
2018-12-06T01:52:05.129Z,16.80
2018-12-06T01:54:33.148Z,16.80
2018-12-06T01:57:01.281Z,16.80
2018-12-06T01:59:29.438Z,16.80
2018-12-06T02:01:56.649Z,16.80
2018-12-06T02:04:23.901Z,16.80
2018-12-06T02:06:51.120Z,16.80
2018-12-06T02:09:19.166Z,16.80
2018-12-06T02:11:46.386Z,16.80
2018-12-06T02:14:14.463Z,16.80
2018-12-06T02:16:41.959Z,16.80
2018-12-06T02:19:10.063Z,16.80
2018-12-06T02:21:37.276Z,16.80
2018-12-06T02:24:04.573Z,16.80
2018-12-06T02:26:32.837Z,16.80
2018-12-06T02:29:00.061Z,16.80
2018-12-06T02:31:27.322Z,16.80
2018-12-06T02:33:55.477Z,16.80
2018-12-06T02:36:23.561Z,16.80
2018-12-06T02:38:51.615Z,16.80
2018-12-06T02:41:18.875Z,16.70
2018-12-06T02:43:47.011Z,16.70
2018-12-06T02:46:15.182Z,16.70
2018-12-06T02:48:43.180Z,16.70
2018-12-06T02:51:11.331Z,16.70
2018-12-06T02:53:38.542Z,16.70
2018-12-06T02:56:05.775Z,16.70
2018-12-06T02:58:33.001Z,16.70
2018-12-06T03:01:01.046Z,16.70
2018-12-06T03:03:29.170Z,16.70
2018-12-06T03:05:57.315Z,16.70
2018-12-06T03:08:24.537Z,16.70
2018-12-06T03:10:52.553Z,16.70
2018-12-06T03:13:20.742Z,16.70
2018-12-06T03:15:47.969Z,16.70
2018-12-06T03:18:16.157Z,16.70
2018-12-06T03:20:44.171Z,16.60
2018-12-06T03:23:12.686Z,16.70
2018-12-06T03:25:39.905Z,16.70
2018-12-06T03:28:08.031Z,16.70
2018-12-06T03:30:36.239Z,16.60
2018-12-06T03:33:03.468Z,16.60
2018-12-06T03:35:30.736Z,16.60
2018-12-06T03:37:58.877Z,16.60
2018-12-06T03:40:26.136Z,16.60
2018-12-06T03:42:54.173Z,16.60
2018-12-06T03:45:21.405Z,16.60
2018-12-06T03:47:48.656Z,16.70
2018-12-06T03:50:15.853Z,16.70
2018-12-06T03:52:44.997Z,16.80
2018-12-06T03:55:14.020Z,16.80
2018-12-06T03:57:42.962Z,16.80
2018-12-06T04:00:10.217Z,16.80
2018-12-06T04:02:37.440Z,16.80
2018-12-06T04:05:05.479Z,16.80
2018-12-06T04:07:32.688Z,16.70
2018-12-06T04:10:01.667Z,16.80
2018-12-06T04:12:29.137Z,16.80
2018-12-06T04:14:57.152Z,16.80
2018-12-06T04:17:24.418Z,16.70
2018-12-06T04:19:51.631Z,16.70
2018-12-06T04:22:19.645Z,16.70
2018-12-06T04:24:46.853Z,16.70
2018-12-06T04:27:14.074Z,16.70
2018-12-06T04:29:43.004Z,16.70
2018-12-06T04:32:10.893Z,16.70
2018-12-06T04:34:38.962Z,16.70
2018-12-06T04:37:06.975Z,16.70
2018-12-06T04:39:35.316Z,16.70
2018-12-06T04:42:02.572Z,16.70
2018-12-06T04:44:30.765Z,16.70
2018-12-06T04:46:57.981Z,16.60
2018-12-06T04:49:26.147Z,16.60
2018-12-06T04:51:53.364Z,16.60
2018-12-06T04:54:21.399Z,16.60
2018-12-06T04:56:48.613Z,16.60
2018-12-06T04:59:15.849Z,16.60
2018-12-06T05:01:44.018Z,16.60
2018-12-06T05:04:11.272Z,16.60
2018-12-06T05:06:39.486Z,16.60
2018-12-06T05:09:06.800Z,16.60
2018-12-06T05:11:34.012Z,16.60
2018-12-06T05:14:02.014Z,16.60
2018-12-06T05:16:29.239Z,16.60
2018-12-06T05:18:57.253Z,16.70
2018-12-06T05:21:24.508Z,16.60
2018-12-06T05:23:52.687Z,16.70
2018-12-06T05:26:19.955Z,16.60
2018-12-06T05:28:47.967Z,16.60
2018-12-06T05:31:15.229Z,16.60
2018-12-06T05:33:43.351Z,16.60
2018-12-06T05:36:10.592Z,16.60
2018-12-06T05:38:37.839Z,16.60
2018-12-06T05:41:05.458Z,16.60
2018-12-06T05:43:32.665Z,16.60
2018-12-06T05:46:00.242Z,16.60
2018-12-06T05:48:27.519Z,16.60
2018-12-06T05:50:54.815Z,16.60
2018-12-06T05:53:22.135Z,16.60
2018-12-06T05:55:49.384Z,16.60
2018-12-06T05:58:17.560Z,16.60
2018-12-06T06:00:45.711Z,16.60
2018-12-06T06:03:13.955Z,16.70
2018-12-06T06:05:41.178Z,16.70
2018-12-06T06:08:08.387Z,16.80
2018-12-06T06:10:35.609Z,16.80
2018-12-06T06:13:02.826Z,16.80
2018-12-06T06:15:30.045Z,16.80
2018-12-06T06:17:57.265Z,16.80
2018-12-06T06:20:24.482Z,16.80
2018-12-06T06:22:51.700Z,16.80
2018-12-06T06:25:19.738Z,16.80
2018-12-06T06:27:47.053Z,16.80
2018-12-06T06:30:14.329Z,16.80
2018-12-06T06:32:41.538Z,16.80
2018-12-06T06:35:08.755Z,16.80
2018-12-06T06:37:36.819Z,16.80
2018-12-06T06:40:04.883Z,16.70
2018-12-06T06:42:32.101Z,16.70
2018-12-06T06:45:00.132Z,16.70
2018-12-06T06:47:28.569Z,16.70
2018-12-06T06:49:56.962Z,16.70
2018-12-06T06:52:25.118Z,16.70
2018-12-06T06:54:52.340Z,16.70
2018-12-06T06:57:20.495Z,16.70
2018-12-06T06:59:48.672Z,16.70
2018-12-06T07:02:16.813Z,16.70
2018-12-06T07:04:44.954Z,16.60
2018-12-06T07:07:12.746Z,16.60
2018-12-06T07:09:39.967Z,16.60
2018-12-06T07:12:08.244Z,16.70
2018-12-06T07:14:36.273Z,16.70
2018-12-06T07:17:04.173Z,16.80
2018-12-06T07:19:31.584Z,16.80
2018-12-06T07:21:58.810Z,16.90
2018-12-06T07:24:26.940Z,16.90
2018-12-06T07:26:55.099Z,16.90
2018-12-06T07:29:23.573Z,16.90
2018-12-06T07:31:51.187Z,16.90
2018-12-06T07:34:18.454Z,16.90
2018-12-06T07:36:46.931Z,16.90
2018-12-06T07:39:14.188Z,16.90
2018-12-06T07:41:41.405Z,16.90
2018-12-06T07:44:09.594Z,16.80
2018-12-06T07:46:36.898Z,16.80
2018-12-06T07:49:04.959Z,16.80
2018-12-06T07:51:32.991Z,16.80
2018-12-06T07:54:01.144Z,16.80
2018-12-06T07:56:29.146Z,16.80
2018-12-06T07:58:57.187Z,16.80
2018-12-06T08:01:24.447Z,16.70
2018-12-06T08:03:51.661Z,16.70
2018-12-06T08:06:18.919Z,16.70
2018-12-06T08:08:46.201Z,16.70
2018-12-06T08:11:14.249Z,16.70
2018-12-06T08:13:41.506Z,16.70
2018-12-06T08:16:08.797Z,16.70
2018-12-06T08:18:36.057Z,16.70
2018-12-06T08:21:03.272Z,16.60
2018-12-06T08:23:31.494Z,16.60
2018-12-06T08:25:58.723Z,16.60
2018-12-06T08:28:26.784Z,16.60
2018-12-06T08:30:54.005Z,16.60
2018-12-06T08:33:22.186Z,16.60
2018-12-06T08:35:50.425Z,16.60
2018-12-06T08:38:17.648Z,16.70
2018-12-06T08:40:44.972Z,16.70
2018-12-06T08:43:13.023Z,16.80
2018-12-06T08:45:41.166Z,16.90
2018-12-06T08:48:08.381Z,16.90
2018-12-06T08:50:35.645Z,16.90
2018-12-06T08:53:02.888Z,16.80
2018-12-06T08:55:32.112Z,16.80
2018-12-06T08:58:00.173Z,16.80
2018-12-06T09:00:28.309Z,16.80
2018-12-06T09:02:55.573Z,16.80
2018-12-06T09:05:22.831Z,16.80
2018-12-06T09:07:50.051Z,16.80
2018-12-06T09:10:17.284Z,16.80
2018-12-06T09:12:44.508Z,16.80
2018-12-06T09:15:11.732Z,16.80
2018-12-06T09:17:38.967Z,16.80
2018-12-06T09:20:07.237Z,16.80
2018-12-06T09:22:35.666Z,16.80
2018-12-06T09:25:02.928Z,16.80
2018-12-06T09:27:30.150Z,16.80
2018-12-06T09:29:57.484Z,16.80
2018-12-06T09:32:24.770Z,16.80
2018-12-06T09:34:52.911Z,16.80
2018-12-06T09:37:21.236Z,16.80
2018-12-06T09:39:55.059Z,16.80
2018-12-06T09:42:23.199Z,16.80
2018-12-06T09:44:51.347Z,16.80
2018-12-06T09:47:19.550Z,16.80
2018-12-06T09:49:46.768Z,16.80
2018-12-06T09:52:15.094Z,16.80
2018-12-06T09:54:43.142Z,16.80
2018-12-06T09:57:10.565Z,16.80
2018-12-06T09:59:37.788Z,16.80
2018-12-06T10:09:28.618Z,16.80
2018-12-06T10:11:55.848Z,16.60
2018-12-06T10:14:23.179Z,16.60
2018-12-06T10:16:50.383Z,16.70
2018-12-06T10:19:17.628Z,16.70
2018-12-06T10:21:45.628Z,16.80
2018-12-06T10:24:12.875Z,16.80
2018-12-06T10:26:42.047Z,16.80
2018-12-06T10:29:09.298Z,16.90
2018-12-06T10:31:37.392Z,17.00
2018-12-06T10:34:04.654Z,17.00
2018-12-06T10:36:32.331Z,17.00
2018-12-06T10:38:59.576Z,17.00
2018-12-06T10:41:26.794Z,17.00
2018-12-06T10:43:54.044Z,17.00
2018-12-06T10:46:22.366Z,17.00
2018-12-06T10:48:49.591Z,17.00
2018-12-06T10:51:22.737Z,17.00
2018-12-06T10:53:50.736Z,17.00
2018-12-06T10:56:18.932Z,17.00
2018-12-06T10:58:47.081Z,17.00
2018-12-06T11:01:16.303Z,17.00
2018-12-06T11:04:00.134Z,16.90
2018-12-06T11:06:27.353Z,17.00
2018-12-06T11:08:54.577Z,16.90
2018-12-06T11:11:23.063Z,16.90
2018-12-06T11:13:50.283Z,16.90
2018-12-06T11:16:17.499Z,16.90
2018-12-06T11:18:44.763Z,16.90
2018-12-06T11:21:11.992Z,16.90
2018-12-06T11:23:39.202Z,16.90
2018-12-06T11:26:06.415Z,16.90
2018-12-06T11:28:33.637Z,16.90
2018-12-06T11:31:01.338Z,16.90
2018-12-06T11:33:28.568Z,16.90
2018-12-06T11:35:55.859Z,16.90
2018-12-06T11:38:23.149Z,16.90
2018-12-06T11:40:50.956Z,17.00
2018-12-06T11:43:18.285Z,17.00
2018-12-06T11:45:46.087Z,17.10
2018-12-06T11:48:13.300Z,17.10
2018-12-06T11:50:41.444Z,17.10
2018-12-06T11:53:08.665Z,17.20
2018-12-06T11:55:35.878Z,17.20
2018-12-06T11:58:03.092Z,17.20
2018-12-06T12:00:32.218Z,17.20
2018-12-06T12:03:00.229Z,17.10
2018-12-06T12:05:28.240Z,17.20
2018-12-06T12:07:56.407Z,17.20
2018-12-06T12:10:24.584Z,17.20
2018-12-06T12:12:52.730Z,17.20
2018-12-06T12:15:20.864Z,17.20
2018-12-06T12:17:49.024Z,17.10
2018-12-06T12:20:16.256Z,17.10
2018-12-06T12:22:44.260Z,17.10
2018-12-06T12:25:11.498Z,17.10
2018-12-06T12:27:38.683Z,17.10
2018-12-06T12:30:07.273Z,17.10
2018-12-06T12:32:34.475Z,17.10
2018-12-06T12:35:02.276Z,17.10
2018-12-06T12:37:29.502Z,17.10
2018-12-06T12:39:56.707Z,17.10
2018-12-06T12:42:23.935Z,17.10
2018-12-06T12:44:51.182Z,17.10
2018-12-06T12:47:19.322Z,17.10
2018-12-06T12:49:46.538Z,17.10
2018-12-06T12:52:13.787Z,17.00
2018-12-06T12:54:41.008Z,17.10
2018-12-06T12:57:08.231Z,17.00
2018-12-06T12:59:35.465Z,17.00
2018-12-06T13:02:02.684Z,17.10
2018-12-06T13:04:29.894Z,17.10
2018-12-06T13:07:00.116Z,17.10
2018-12-06T13:09:28.257Z,17.10
2018-12-06T13:11:55.466Z,17.20
2018-12-06T13:14:23.220Z,17.20
2018-12-06T13:16:50.427Z,17.20
2018-12-06T13:19:17.636Z,17.30
2018-12-06T13:21:44.857Z,17.30
2018-12-06T13:24:12.864Z,17.30
2018-12-06T13:26:40.093Z,17.20
2018-12-06T13:29:07.303Z,17.20
2018-12-06T13:31:34.510Z,17.20
2018-12-06T13:34:03.181Z,17.20
2018-12-06T13:36:30.394Z,17.20
2018-12-06T13:38:57.605Z,17.20
2018-12-06T13:41:24.819Z,17.20
2018-12-06T13:43:52.043Z,17.20
2018-12-06T13:46:19.268Z,17.20
2018-12-06T13:48:46.500Z,17.20
2018-12-06T13:51:13.726Z,17.20
2018-12-06T13:53:40.986Z,17.20
2018-12-06T13:56:08.187Z,17.10
2018-12-06T13:58:35.451Z,17.10
2018-12-06T14:01:02.879Z,17.10
2018-12-06T14:03:31.888Z,17.20
2018-12-06T14:05:59.890Z,17.20
2018-12-06T14:08:28.044Z,17.10
2018-12-06T14:10:56.176Z,17.10
2018-12-06T14:13:24.290Z,17.10
2018-12-06T14:15:51.507Z,17.10
2018-12-06T14:18:18.776Z,17.10
2018-12-06T14:20:45.999Z,17.10
2018-12-06T14:23:14.056Z,17.10
2018-12-06T14:25:42.098Z,17.10
2018-12-06T14:28:09.316Z,17.10
2018-12-06T14:30:36.581Z,17.10
2018-12-06T14:33:03.868Z,17.10
2018-12-06T14:35:31.951Z,17.10
2018-12-06T14:37:59.686Z,17.10
2018-12-06T14:40:27.745Z,17.10
2018-12-06T14:42:55.050Z,17.10
2018-12-06T14:45:23.189Z,17.10
2018-12-06T14:47:50.398Z,17.10
2018-12-06T14:50:17.656Z,17.10
2018-12-06T14:52:45.661Z,17.10
2018-12-06T14:55:12.941Z,17.10
2018-12-06T14:57:41.065Z,17.10
2018-12-06T15:00:09.242Z,17.10
2018-12-06T15:02:36.462Z,17.10
2018-12-06T15:05:06.072Z,17.10
2018-12-06T15:07:33.379Z,17.10
2018-12-06T15:10:01.933Z,17.10
2018-12-06T15:12:31.824Z,17.10
2018-12-06T15:14:59.072Z,17.10
2018-12-06T15:17:26.413Z,17.10
2018-12-06T15:19:54.275Z,17.10
2018-12-06T15:22:21.511Z,17.20
2018-12-06T15:24:48.779Z,17.30
2018-12-06T15:27:17.083Z,17.30
2018-12-06T15:29:44.546Z,17.40
2018-12-06T15:32:11.772Z,17.40
2018-12-06T15:34:39.991Z,17.30
2018-12-06T15:37:07.216Z,17.30
2018-12-06T15:39:35.392Z,17.30
2018-12-06T15:42:03.248Z,17.30
2018-12-06T15:44:30.518Z,17.30
2018-12-06T15:46:57.823Z,17.30
2018-12-06T15:49:25.863Z,17.30
2018-12-06T15:51:53.111Z,17.30
2018-12-06T15:54:20.325Z,17.30
2018-12-06T15:56:48.338Z,17.20
2018-12-06T15:59:15.596Z,17.30
2018-12-06T16:01:42.825Z,17.30
2018-12-06T16:04:10.079Z,17.30
2018-12-06T16:06:37.302Z,17.30
2018-12-06T16:09:05.445Z,17.30
2018-12-06T16:11:33.458Z,17.30
2018-12-06T16:14:01.196Z,17.30
2018-12-06T16:16:28.483Z,17.30
2018-12-06T16:18:55.726Z,17.30
2018-12-06T16:21:22.957Z,17.30
2018-12-06T16:23:50.219Z,17.30
2018-12-06T16:26:17.439Z,17.30
2018-12-06T16:28:44.704Z,17.30
2018-12-06T16:31:12.706Z,17.30
2018-12-06T16:33:39.920Z,17.30
2018-12-06T16:36:07.131Z,17.30
2018-12-06T16:38:34.342Z,17.30
2018-12-06T16:41:02.122Z,17.30
2018-12-06T16:43:29.347Z,17.30
2018-12-06T16:45:56.590Z,17.30
2018-12-06T16:48:23.802Z,17.30
2018-12-06T16:50:51.017Z,17.30
2018-12-06T16:53:18.217Z,17.20
2018-12-06T16:55:46.226Z,17.20
2018-12-06T16:58:13.431Z,17.20
2018-12-06T17:00:40.647Z,17.20
2018-12-06T17:03:07.863Z,17.20
2018-12-06T17:05:39.393Z,17.20
2018-12-06T17:08:12.781Z,17.20
2018-12-06T17:10:40.126Z,17.20
2018-12-06T17:13:08.138Z,17.20
2018-12-06T17:15:36.152Z,17.20
2018-12-06T17:18:04.319Z,17.30
2018-12-06T17:20:32.640Z,17.30
2018-12-06T17:23:01.144Z,17.40
2018-12-06T17:25:28.374Z,17.40
2018-12-06T17:27:56.811Z,17.40
2018-12-06T17:30:24.946Z,17.50
2018-12-06T17:32:52.192Z,17.40
2018-12-06T17:35:19.397Z,17.40
2018-12-06T17:37:47.491Z,17.40
2018-12-06T17:40:14.683Z,17.50
2018-12-06T17:42:41.868Z,17.50
2018-12-06T17:45:10.010Z,17.50
2018-12-06T17:47:37.221Z,17.40
2018-12-06T17:50:06.097Z,17.40
2018-12-06T17:52:33.347Z,17.40
2018-12-06T17:55:02.575Z,17.40
2018-12-06T17:57:31.209Z,17.40
2018-12-06T17:59:59.325Z,17.40
2018-12-06T18:02:26.545Z,17.40
2018-12-06T18:04:53.798Z,17.30
2018-12-06T18:07:21.018Z,17.40
2018-12-06T18:09:48.267Z,17.30
2018-12-06T18:12:16.405Z,17.40
2018-12-06T18:14:44.609Z,17.30
2018-12-06T18:17:13.766Z,17.30
2018-12-06T18:19:40.992Z,17.30
2018-12-06T18:22:08.233Z,17.30
2018-12-06T18:24:36.356Z,17.40
2018-12-06T18:27:04.485Z,17.40
2018-12-06T18:29:32.267Z,17.50
2018-12-06T18:31:59.465Z,17.50
2018-12-06T18:34:26.662Z,17.60
2018-12-06T18:36:53.891Z,17.60
2018-12-06T18:39:21.133Z,17.60
2018-12-06T18:41:48.507Z,17.50
2018-12-06T18:44:16.613Z,17.60
2018-12-06T18:46:44.729Z,17.50
2018-12-06T18:49:11.945Z,17.60
2018-12-06T18:51:39.929Z,17.50
2018-12-06T18:54:08.010Z,17.50
2018-12-06T18:56:36.148Z,17.50
2018-12-06T18:59:03.353Z,17.50
2018-12-06T19:01:30.905Z,17.50
2018-12-06T19:03:59.117Z,17.50
2018-12-06T19:06:26.354Z,17.50
2018-12-06T19:08:54.450Z,17.50
2018-12-06T19:11:21.655Z,17.50
2018-12-06T19:13:48.860Z,17.50
2018-12-06T19:16:16.118Z,17.50
2018-12-06T19:18:43.335Z,17.50
2018-12-06T19:21:10.773Z,17.50
2018-12-06T19:23:38.069Z,17.50
2018-12-06T19:26:05.284Z,17.50
2018-12-06T19:28:32.782Z,17.40
2018-12-06T19:31:00.060Z,17.40
2018-12-06T19:33:27.306Z,17.50
2018-12-06T19:35:55.359Z,17.40
2018-12-06T19:38:22.572Z,17.40
2018-12-06T19:40:49.814Z,17.40
2018-12-06T19:43:17.040Z,17.50
2018-12-06T19:45:44.261Z,17.50
2018-12-06T19:48:11.514Z,17.40
2018-12-06T19:50:38.751Z,17.40
2018-12-06T19:53:06.793Z,17.50
2018-12-06T19:55:34.852Z,17.50
2018-12-06T19:58:03.012Z,17.40
2018-12-06T20:00:30.272Z,17.50
2018-12-06T20:02:58.405Z,17.40
2018-12-06T20:05:25.622Z,17.50
2018-12-06T20:07:53.640Z,17.60
2018-12-06T20:10:21.774Z,17.60
2018-12-06T20:12:49.886Z,17.70
2018-12-06T20:15:17.136Z,17.70
2018-12-06T20:17:44.372Z,17.70
2018-12-06T20:20:11.640Z,17.60
2018-12-06T20:22:39.800Z,17.60
2018-12-06T20:25:07.919Z,17.60
2018-12-06T20:27:35.140Z,17.60
2018-12-06T20:30:02.937Z,17.60
2018-12-06T20:32:30.148Z,17.60
2018-12-06T20:34:57.368Z,17.60
2018-12-06T20:37:24.587Z,17.50
2018-12-06T20:39:52.711Z,17.60
2018-12-06T20:42:20.038Z,17.60
2018-12-06T20:44:48.172Z,17.50
2018-12-06T20:47:17.398Z,17.50
2018-12-06T20:49:45.537Z,17.50
2018-12-06T20:52:12.797Z,17.50
2018-12-06T20:54:40.020Z,17.50
2018-12-06T20:57:07.239Z,17.50
2018-12-06T20:59:34.461Z,17.50
2018-12-06T21:02:02.223Z,17.50
2018-12-06T21:04:29.438Z,17.50
2018-12-06T21:06:57.540Z,17.50
2018-12-06T21:09:24.805Z,17.50
2018-12-06T21:11:52.833Z,17.50
2018-12-06T21:14:22.261Z,17.50
2018-12-06T21:16:49.309Z,17.50
2018-12-06T21:19:16.525Z,17.50
2018-12-06T21:21:45.085Z,17.50
2018-12-06T21:24:12.397Z,17.50
2018-12-06T21:26:39.620Z,17.40
2018-12-06T21:29:06.844Z,17.40
2018-12-06T21:31:35.081Z,17.50
2018-12-06T21:34:03.132Z,17.50
2018-12-06T21:36:30.358Z,17.50
2018-12-06T21:38:57.573Z,17.50
2018-12-06T21:41:24.801Z,17.50
2018-12-06T21:43:52.108Z,17.50
2018-12-06T21:46:19.326Z,17.50
2018-12-06T21:48:46.547Z,17.50
2018-12-06T21:51:13.764Z,17.50
2018-12-06T21:53:41.122Z,17.50
2018-12-06T21:56:08.354Z,17.40
2018-12-06T21:58:35.674Z,17.40
2018-12-06T22:01:03.810Z,17.50
2018-12-06T22:03:32.646Z,17.40
2018-12-06T22:06:01.570Z,17.50
2018-12-06T22:08:28.795Z,17.50
2018-12-06T22:10:56.009Z,17.50
2018-12-06T22:13:23.214Z,17.50
2018-12-06T22:15:50.431Z,17.50
2018-12-06T22:18:17.720Z,17.60
2018-12-06T22:20:44.934Z,17.70
2018-12-06T22:23:12.177Z,17.60
2018-12-06T22:25:41.088Z,17.70
2018-12-06T22:28:10.123Z,17.60
2018-12-06T22:30:38.174Z,17.70
2018-12-06T22:33:05.456Z,17.60
2018-12-06T22:35:32.720Z,17.70
2018-12-06T22:37:59.939Z,17.70
2018-12-06T22:40:27.171Z,17.60
2018-12-06T22:42:54.403Z,17.60
2018-12-06T22:45:27.431Z,17.60
2018-12-06T22:47:54.641Z,17.60
2018-12-06T22:50:21.863Z,17.60
2018-12-06T22:52:49.164Z,17.60
2018-12-06T22:55:16.434Z,17.60
2018-12-06T22:57:43.683Z,17.60
2018-12-06T23:00:10.917Z,17.60
2018-12-06T23:02:38.142Z,17.60
2018-12-06T23:05:05.359Z,17.60
2018-12-06T23:07:32.575Z,17.50
2018-12-06T23:09:59.796Z,17.50
2018-12-06T23:12:27.955Z,17.60
2018-12-06T23:14:55.157Z,17.60
2018-12-06T23:17:22.374Z,17.50
2018-12-06T23:19:50.514Z,17.50
2018-12-06T23:22:17.774Z,17.50
2018-12-06T23:24:44.997Z,17.50
2018-12-06T23:27:12.236Z,17.50
2018-12-06T23:29:39.456Z,17.50
2018-12-06T23:32:06.674Z,17.50
2018-12-06T23:34:33.884Z,17.50
2018-12-06T23:37:02.025Z,17.40
2018-12-06T23:39:29.241Z,17.40
2018-12-06T23:41:56.462Z,17.50
2018-12-06T23:44:23.690Z,17.50
2018-12-06T23:46:50.918Z,17.50
2018-12-06T23:49:18.154Z,17.40
2018-12-06T23:51:46.174Z,17.50
2018-12-06T23:54:13.384Z,17.40
2018-12-06T23:56:40.609Z,17.50
2018-12-06T23:59:08.783Z,17.40
